createdAt,value
2023-04-09T00:00:29.097Z,32.80
2023-04-09T00:03:17.229Z,30.10
2023-04-09T00:05:45.196Z,30.50
2023-04-09T00:08:12.908Z,33.60
2023-04-09T00:10:40.692Z,33.40
2023-04-09T00:13:08.431Z,30.70
2023-04-09T00:15:36.298Z,36.50
2023-04-09T00:18:04.098Z,31.80
2023-04-09T00:20:31.793Z,32.70
2023-04-09T00:22:59.534Z,35.70
2023-04-09T00:25:28.743Z,33.00
2023-04-09T00:27:56.755Z,30.30
2023-04-09T00:30:24.595Z,29.50
2023-04-09T00:32:52.430Z,31.90
2023-04-09T00:35:20.553Z,31.60
2023-04-09T00:37:48.312Z,33.10
2023-04-09T00:40:16.309Z,31.00
2023-04-09T00:42:44.059Z,32.10
2023-04-09T00:45:11.901Z,33.60
2023-04-09T00:47:40.011Z,32.10
2023-04-09T00:50:08.128Z,30.80
2023-04-09T00:52:36.242Z,33.20
2023-04-09T00:55:05.250Z,34.10
2023-04-09T00:57:33.006Z,31.10
2023-04-09T01:00:00.999Z,34.70
2023-04-09T01:02:29.048Z,31.40
2023-04-09T01:04:57.414Z,30.90
2023-04-09T01:07:37.032Z,32.60
2023-04-09T01:10:19.812Z,33.70
2023-04-09T01:12:57.400Z,34.70
2023-04-09T01:15:31.341Z,33.70
2023-04-09T01:18:02.130Z,34.10
2023-04-09T01:20:40.624Z,30.50
2023-04-09T01:23:16.461Z,31.00
2023-04-09T01:25:49.215Z,32.70
2023-04-09T01:28:26.148Z,32.80
2023-04-09T01:30:57.666Z,32.10
2023-04-09T01:33:25.709Z,33.00
2023-04-09T01:35:54.077Z,32.10
2023-04-09T01:38:23.155Z,31.90
2023-04-09T01:40:51.028Z,31.70
2023-04-09T01:43:19.183Z,34.90
2023-04-09T01:45:47.443Z,33.00
2023-04-09T01:48:16.135Z,34.00
2023-04-09T01:50:43.996Z,30.80
2023-04-09T01:53:12.172Z,34.10
2023-04-09T01:55:39.924Z,30.70
2023-04-09T01:58:07.737Z,29.40
2023-04-09T02:00:38.351Z,30.70
2023-04-09T02:03:22.301Z,33.80
2023-04-09T02:05:55.769Z,33.60
2023-04-09T02:08:24.302Z,33.70
2023-04-09T02:10:58.836Z,34.60
2023-04-09T02:13:27.765Z,33.20
2023-04-09T02:15:56.534Z,30.90
2023-04-09T02:18:25.258Z,31.50
2023-04-09T02:20:53.696Z,35.40
2023-04-09T02:23:22.033Z,36.60
2023-04-09T02:25:50.037Z,31.80
2023-04-09T02:28:17.799Z,35.10
2023-04-09T02:30:45.529Z,33.00
2023-04-09T02:33:13.462Z,30.90
2023-04-09T02:35:41.265Z,32.40
2023-04-09T02:38:14.641Z,35.50
2023-04-09T02:40:42.463Z,36.00
2023-04-09T02:43:10.406Z,33.00
2023-04-09T02:45:38.259Z,31.80
2023-04-09T02:48:06.039Z,31.40
2023-04-09T02:50:33.755Z,31.00
2023-04-09T02:53:01.640Z,30.70
2023-04-09T02:55:29.477Z,33.10
2023-04-09T02:57:57.144Z,32.40
2023-04-09T03:00:24.896Z,32.70
2023-04-09T03:02:52.907Z,32.00
2023-04-09T03:05:23.461Z,31.60
2023-04-09T03:07:51.268Z,31.40
2023-04-09T03:10:19.090Z,34.90
2023-04-09T03:12:47.960Z,31.60
2023-04-09T03:15:15.826Z,33.80
2023-04-09T03:17:43.563Z,32.70
2023-04-09T03:20:11.427Z,29.60
2023-04-09T03:22:39.642Z,30.60
2023-04-09T03:25:07.779Z,32.00
2023-04-09T03:27:35.741Z,32.40
2023-04-09T03:30:03.892Z,32.10
2023-04-09T03:32:31.602Z,33.70
2023-04-09T03:34:59.466Z,30.40
2023-04-09T03:37:27.458Z,31.20
2023-04-09T03:39:55.283Z,35.80
2023-04-09T03:42:23.071Z,31.30
2023-04-09T03:44:53.363Z,31.20
2023-04-09T03:47:21.297Z,31.40
2023-04-09T03:49:49.104Z,33.10
2023-04-09T03:52:16.914Z,33.90
2023-04-09T03:54:44.744Z,30.60
2023-04-09T03:57:12.648Z,30.60
2023-04-09T03:59:40.480Z,31.60
2023-04-09T04:02:08.333Z,30.70
2023-04-09T04:04:36.388Z,31.40
2023-04-09T04:07:04.132Z,43.10
2023-04-09T04:09:31.866Z,54.30
2023-04-09T04:12:02.356Z,50.10
2023-04-09T04:14:30.264Z,44.90
2023-04-09T04:16:58.041Z,32.10
2023-04-09T04:19:25.829Z,32.30
2023-04-09T04:21:53.595Z,31.50
2023-04-09T04:24:21.467Z,31.90
2023-04-09T04:26:49.308Z,35.90
2023-04-09T04:29:17.138Z,30.70
2023-04-09T04:31:44.962Z,33.60
2023-04-09T04:34:12.775Z,33.80
2023-04-09T04:36:40.559Z,32.30
2023-04-09T04:39:08.253Z,33.40
2023-04-09T04:41:36.026Z,31.70
2023-04-09T04:44:03.974Z,33.50
2023-04-09T04:46:31.807Z,32.50
2023-04-09T04:48:59.579Z,31.10
2023-04-09T04:51:27.835Z,31.20
2023-04-09T04:53:55.699Z,32.50
2023-04-09T04:56:23.440Z,32.10
2023-04-09T04:58:51.469Z,32.30
2023-04-09T05:01:19.484Z,32.20
2023-04-09T05:03:47.375Z,35.30
2023-04-09T05:06:15.372Z,30.70
2023-04-09T05:08:43.118Z,31.90
2023-04-09T05:11:15.209Z,36.80
2023-04-09T05:13:43.057Z,33.90
2023-04-09T05:16:16.608Z,35.70
2023-04-09T05:18:44.506Z,29.70
2023-04-09T05:21:12.357Z,33.70
2023-04-09T05:23:40.156Z,34.70
2023-04-09T05:26:08.016Z,35.80
2023-04-09T05:28:35.841Z,32.80
2023-04-09T05:31:03.579Z,32.50
2023-04-09T05:33:35.428Z,33.90
2023-04-09T05:36:03.265Z,35.30
2023-04-09T05:38:31.247Z,35.10
2023-04-09T05:40:59.673Z,36.20
2023-04-09T05:43:27.618Z,36.70
2023-04-09T05:45:55.359Z,37.50
2023-04-09T05:48:23.181Z,37.10
2023-04-09T05:50:55.534Z,36.10
2023-04-09T05:53:23.639Z,32.10
2023-04-09T05:55:51.451Z,32.00
2023-04-09T05:58:19.841Z,38.50
2023-04-09T06:00:47.695Z,34.80
2023-04-09T06:03:15.574Z,32.30
2023-04-09T06:05:45.001Z,32.70
2023-04-09T06:08:14.152Z,33.10
2023-04-09T06:10:41.839Z,37.60
2023-04-09T06:13:10.144Z,33.60
2023-04-09T06:15:38.714Z,37.10
2023-04-09T06:18:06.925Z,34.00
2023-04-09T06:20:34.825Z,34.60
2023-04-09T06:23:02.619Z,33.00
2023-04-09T06:25:30.677Z,34.10
2023-04-09T06:27:58.492Z,34.10
2023-04-09T06:30:26.432Z,31.50
2023-04-09T06:32:55.371Z,32.30
2023-04-09T06:35:23.395Z,36.50
2023-04-09T06:37:51.373Z,32.20
2023-04-09T06:40:20.743Z,29.70
2023-04-09T06:42:50.601Z,34.20
2023-04-09T06:45:18.435Z,37.20
2023-04-09T06:47:46.260Z,35.40
2023-04-09T06:50:14.042Z,39.70
2023-04-09T06:52:42.042Z,34.30
2023-04-09T06:55:09.867Z,31.20
2023-04-09T06:57:38.783Z,27.40
2023-04-09T07:00:06.984Z,33.20
2023-04-09T07:02:35.243Z,33.80
2023-04-09T07:05:04.151Z,34.90
2023-04-09T07:07:31.927Z,32.10
2023-04-09T07:09:59.778Z,31.00
2023-04-09T07:12:28.227Z,34.00
2023-04-09T07:14:59.631Z,30.60
2023-04-09T07:17:27.441Z,28.30
2023-04-09T07:19:55.421Z,28.30
2023-04-09T07:22:23.799Z,30.60
2023-04-09T07:24:55.203Z,28.20
2023-04-09T07:27:24.059Z,27.00
2023-04-09T07:29:54.212Z,26.60
2023-04-09T07:32:22.014Z,26.90
2023-04-09T07:34:53.025Z,28.00
2023-04-09T07:37:21.201Z,32.40
2023-04-09T07:39:49.608Z,26.50
2023-04-09T07:42:17.439Z,27.40
2023-04-09T07:44:45.121Z,25.80
2023-04-09T07:47:13.089Z,26.90
2023-04-09T07:49:41.097Z,38.90
2023-04-09T07:52:08.897Z,28.60
2023-04-09T07:54:36.657Z,27.80
2023-04-09T07:57:04.391Z,30.10
2023-04-09T07:59:32.423Z,29.10
2023-04-09T08:02:00.559Z,31.00
2023-04-09T08:04:29.840Z,29.40
2023-04-09T08:06:57.649Z,28.50
2023-04-09T08:09:26.226Z,28.90
2023-04-09T08:11:54.185Z,27.20
2023-04-09T08:14:22.036Z,31.20
2023-04-09T08:16:50.554Z,28.00
2023-04-09T08:19:20.479Z,31.10
2023-04-09T08:21:51.426Z,31.80
2023-04-09T08:24:19.350Z,27.10
2023-04-09T08:26:47.332Z,27.90
2023-04-09T08:29:15.167Z,30.30
2023-04-09T08:31:43.240Z,28.80
2023-04-09T08:34:11.142Z,30.00
2023-04-09T08:36:41.849Z,29.00
2023-04-09T08:39:09.629Z,29.40
2023-04-09T08:41:41.850Z,29.40
2023-04-09T08:44:09.693Z,28.70
2023-04-09T08:46:37.617Z,31.50
2023-04-09T08:49:05.366Z,33.50
2023-04-09T08:51:33.186Z,32.80
2023-04-09T08:54:04.002Z,33.00
2023-04-09T08:56:32.523Z,30.30
2023-04-09T08:59:00.261Z,26.10
2023-04-09T09:01:29.231Z,30.70
2023-04-09T09:03:57.441Z,36.00
2023-04-09T09:06:28.028Z,34.20
2023-04-09T09:09:03.705Z,31.40
2023-04-09T09:11:31.734Z,30.10
2023-04-09T09:14:04.017Z,33.60
2023-04-09T09:16:34.774Z,33.70
2023-04-09T09:19:02.807Z,31.40
2023-04-09T09:21:30.718Z,31.80
2023-04-09T09:23:58.618Z,27.40
2023-04-09T09:26:28.810Z,26.40
2023-04-09T09:29:17.080Z,27.90
2023-04-09T09:31:49.615Z,27.20
2023-04-09T09:34:17.791Z,26.70
2023-04-09T09:36:46.167Z,24.90
2023-04-09T09:39:14.707Z,25.80
2023-04-09T09:41:42.944Z,25.80
2023-04-09T09:44:11.626Z,25.70
2023-04-09T09:46:41.517Z,26.60
2023-04-09T09:49:09.641Z,24.60
2023-04-09T09:51:39.410Z,27.30
2023-04-09T09:54:07.830Z,23.40
2023-04-09T09:56:36.197Z,25.60
2023-04-09T09:59:13.080Z,19.70
2023-04-09T10:01:41.235Z,24.70
2023-04-09T10:04:13.616Z,21.60
2023-04-09T10:06:45.126Z,22.70
2023-04-09T10:09:13.127Z,25.20
2023-04-09T10:11:45.657Z,26.40
2023-04-09T10:14:13.784Z,24.20
2023-04-09T10:16:42.062Z,28.60
2023-04-09T10:19:14.229Z,26.70
2023-04-09T10:21:45.315Z,24.80
2023-04-09T10:24:13.206Z,27.00
2023-04-09T10:26:41.798Z,26.70
2023-04-09T10:29:13.954Z,23.90
2023-04-09T10:31:55.246Z,22.70
2023-04-09T10:34:24.725Z,25.10
2023-04-09T10:36:53.721Z,26.00
2023-04-09T10:39:21.723Z,25.10
2023-04-09T10:41:49.978Z,28.20
2023-04-09T10:44:27.984Z,23.40
2023-04-09T10:46:56.142Z,24.90
2023-04-09T10:49:25.007Z,23.80
2023-04-09T10:51:53.804Z,27.40
2023-04-09T10:54:41.401Z,22.60
2023-04-09T10:57:09.151Z,26.60
2023-04-09T10:59:38.318Z,27.30
2023-04-09T11:02:07.847Z,24.40
2023-04-09T11:04:35.739Z,24.40
2023-04-09T11:07:06.580Z,26.80
2023-04-09T11:09:37.382Z,22.80
2023-04-09T11:12:05.140Z,22.90
2023-04-09T11:14:33.517Z,23.50
2023-04-09T11:17:03.161Z,21.80
2023-04-09T11:19:33.463Z,26.00
2023-04-09T11:22:04.877Z,22.70
2023-04-09T11:24:42.524Z,20.80
2023-04-09T11:27:10.509Z,26.40
2023-04-09T11:29:38.566Z,23.10
2023-04-09T11:32:06.513Z,21.70
2023-04-09T11:34:34.165Z,25.70
2023-04-09T11:37:07.120Z,22.10
2023-04-09T11:39:37.955Z,21.40
2023-04-09T11:42:05.824Z,22.40
2023-04-09T11:44:33.573Z,20.30
2023-04-09T11:47:01.541Z,22.40
2023-04-09T11:49:29.327Z,23.70
2023-04-09T11:51:58.529Z,21.10
2023-04-09T11:54:31.576Z,20.90
2023-04-09T11:57:03.694Z,20.40
2023-04-09T11:59:31.450Z,22.20
2023-04-09T12:01:59.288Z,22.00
2023-04-09T12:04:27.179Z,21.60
2023-04-09T12:06:58.989Z,23.10
2023-04-09T12:09:26.995Z,20.00
2023-04-09T12:11:54.801Z,18.60
2023-04-09T12:14:22.829Z,18.40
2023-04-09T12:16:51.353Z,18.10
2023-04-09T12:19:22.869Z,22.80
2023-04-09T12:21:55.872Z,18.40
2023-04-09T12:24:24.432Z,21.20
2023-04-09T12:26:52.311Z,19.40
2023-04-09T12:29:21.006Z,19.80
2023-04-09T12:31:48.901Z,20.80
2023-04-09T12:34:16.609Z,18.90
2023-04-09T12:36:44.304Z,17.50
2023-04-09T12:39:12.024Z,18.80
2023-04-09T12:41:39.740Z,19.90
2023-04-09T12:44:08.048Z,18.90
2023-04-09T12:46:36.365Z,16.80
2023-04-09T12:49:04.299Z,16.80
2023-04-09T12:51:32.835Z,18.10
2023-04-09T12:54:00.831Z,16.10
2023-04-09T12:56:29.823Z,17.90
2023-04-09T12:58:57.745Z,15.60
2023-04-09T13:01:25.538Z,16.10
2023-04-09T13:03:53.839Z,17.90
2023-04-09T13:06:23.041Z,16.90
2023-04-09T13:08:50.887Z,17.90
2023-04-09T13:11:18.670Z,18.60
2023-04-09T13:13:47.249Z,16.60
2023-04-09T13:16:14.976Z,15.80
2023-04-09T13:18:42.820Z,15.20
2023-04-09T13:21:10.847Z,16.00
2023-04-09T13:23:38.947Z,15.40
2023-04-09T13:26:07.126Z,14.60
2023-04-09T13:28:34.891Z,13.70
2023-04-09T13:31:03.242Z,14.80
2023-04-09T13:33:31.250Z,15.20
2023-04-09T13:35:59.142Z,15.00
2023-04-09T13:38:27.075Z,14.80
2023-04-09T13:40:55.010Z,12.80
2023-04-09T13:43:28.030Z,12.50
2023-04-09T13:45:57.542Z,14.30
2023-04-09T13:48:25.641Z,13.40
2023-04-09T13:50:53.553Z,14.00
2023-04-09T13:53:23.858Z,14.20
2023-04-09T13:55:51.872Z,16.10
2023-04-09T13:58:22.158Z,14.10
2023-04-09T14:00:49.974Z,13.20
2023-04-09T14:03:18.216Z,14.60
2023-04-09T14:05:46.067Z,15.90
2023-04-09T14:08:13.808Z,14.50
2023-04-09T14:10:41.538Z,21.40
2023-04-09T14:13:12.011Z,13.10
2023-04-09T14:15:39.991Z,12.10
2023-04-09T14:18:07.994Z,13.90
2023-04-09T14:20:36.305Z,12.00
2023-04-09T14:23:04.158Z,14.60
2023-04-09T14:25:32.103Z,16.20
2023-04-09T14:28:00.260Z,14.40
2023-04-09T14:30:28.028Z,11.80
2023-04-09T14:32:55.865Z,16.00
2023-04-09T14:35:23.775Z,15.10
2023-04-09T14:37:51.782Z,12.40
2023-04-09T14:40:19.638Z,12.60
2023-04-09T14:42:48.175Z,13.00
2023-04-09T14:45:16.466Z,16.30
2023-04-09T14:47:44.247Z,12.50
2023-04-09T14:50:12.895Z,14.00
2023-04-09T14:52:41.050Z,14.20
2023-04-09T14:55:12.632Z,14.30
2023-04-09T14:57:41.085Z,13.90
2023-04-09T15:00:09.579Z,14.20
2023-04-09T15:02:38.650Z,19.20
2023-04-09T15:05:07.340Z,13.30
2023-04-09T15:07:35.329Z,17.10
2023-04-09T15:10:03.112Z,13.40
2023-04-09T15:12:31.773Z,11.60
2023-04-09T15:14:59.827Z,15.90
2023-04-09T15:17:29.057Z,14.00
2023-04-09T15:19:56.807Z,13.10
2023-04-09T15:22:24.611Z,12.70
2023-04-09T15:24:53.180Z,13.00
2023-04-09T15:27:20.976Z,12.80
2023-04-09T15:29:48.859Z,13.10
2023-04-09T15:32:16.643Z,15.40
2023-04-09T15:34:44.761Z,13.20
2023-04-09T15:37:12.547Z,16.30
2023-04-09T15:39:40.585Z,12.60
2023-04-09T15:42:10.271Z,14.20
2023-04-09T15:44:39.448Z,14.20
2023-04-09T15:47:07.126Z,16.50
2023-04-09T15:49:35.680Z,13.90
2023-04-09T15:52:03.706Z,13.10
2023-04-09T15:54:31.514Z,14.00
2023-04-09T15:56:59.327Z,15.40
2023-04-09T15:59:27.337Z,12.70
2023-04-09T16:01:55.376Z,12.90
2023-04-09T16:04:23.231Z,16.00
2023-04-09T16:06:51.329Z,33.40
2023-04-09T16:09:19.111Z,13.70
2023-04-09T16:11:46.802Z,13.10
2023-04-09T16:14:14.519Z,17.30
2023-04-09T16:16:46.990Z,14.70
2023-04-09T16:19:14.886Z,23.70
2023-04-09T16:21:44.733Z,18.70
2023-04-09T16:24:12.842Z,12.30
2023-04-09T16:26:41.138Z,16.20
2023-04-09T16:29:09.046Z,11.60
2023-04-09T16:31:41.934Z,15.80
2023-04-09T16:34:09.757Z,11.00
2023-04-09T16:36:37.538Z,14.00
2023-04-09T16:39:05.687Z,12.10
2023-04-09T16:41:34.981Z,12.00
2023-04-09T16:44:04.573Z,15.60
2023-04-09T16:46:32.340Z,12.70
2023-04-09T16:49:00.334Z,13.80
2023-04-09T16:51:28.366Z,12.90
2023-04-09T16:53:56.214Z,13.50
2023-04-09T16:56:23.941Z,13.90
2023-04-09T16:58:52.423Z,14.60
2023-04-09T17:01:20.557Z,16.50
2023-04-09T17:03:49.172Z,14.40
2023-04-09T17:06:17.011Z,15.70
2023-04-09T17:08:45.382Z,15.30
2023-04-09T17:11:16.369Z,24.70
2023-04-09T17:13:44.395Z,29.70
2023-04-09T17:16:12.403Z,23.10
2023-04-09T17:18:40.136Z,15.60
2023-04-09T17:21:07.978Z,16.60
2023-04-09T17:23:36.299Z,15.00
2023-04-09T17:26:04.072Z,14.10
2023-04-09T17:28:31.931Z,14.30
2023-04-09T17:30:59.760Z,17.40
2023-04-09T17:33:27.514Z,12.10
2023-04-09T17:35:57.290Z,13.20
2023-04-09T17:38:27.018Z,13.80
2023-04-09T17:40:54.881Z,12.10
2023-04-09T17:43:22.809Z,15.50
2023-04-09T17:45:50.682Z,17.70
2023-04-09T17:48:18.584Z,17.90
2023-04-09T17:50:46.780Z,16.10
2023-04-09T17:53:14.504Z,15.80
2023-04-09T17:55:46.548Z,16.10
2023-04-09T17:58:14.835Z,13.40
2023-04-09T18:00:43.388Z,15.10
2023-04-09T18:03:14.509Z,15.40
2023-04-09T18:05:43.025Z,16.50
2023-04-09T18:08:10.957Z,19.20
2023-04-09T18:10:38.708Z,15.70
2023-04-09T18:13:06.554Z,17.20
2023-04-09T18:15:34.354Z,18.90
2023-04-09T18:18:02.128Z,18.40
2023-04-09T18:20:29.934Z,17.50
2023-04-09T18:22:57.760Z,18.90
2023-04-09T18:25:25.559Z,18.40
2023-04-09T18:27:53.328Z,14.20
2023-04-09T18:30:21.114Z,14.80
2023-04-09T18:32:48.926Z,23.00
2023-04-09T18:35:17.483Z,27.90
2023-04-09T18:37:45.512Z,21.80
2023-04-09T18:40:17.362Z,17.00
2023-04-09T18:42:45.234Z,14.20
2023-04-09T18:45:12.997Z,17.10
2023-04-09T18:47:40.891Z,17.80
2023-04-09T18:50:08.892Z,20.20
2023-04-09T18:52:38.890Z,16.60
2023-04-09T18:55:06.761Z,17.90
2023-04-09T18:57:34.590Z,16.00
2023-04-09T19:00:03.911Z,17.90
2023-04-09T19:02:32.189Z,16.50
2023-04-09T19:05:00.636Z,17.10
2023-04-09T19:07:28.697Z,17.90
2023-04-09T19:09:56.484Z,18.30
2023-04-09T19:12:25.109Z,18.30
2023-04-09T19:14:53.783Z,19.70
2023-04-09T19:17:22.514Z,24.50
2023-04-09T19:19:50.403Z,26.20
2023-04-09T19:22:18.146Z,20.10
2023-04-09T19:24:45.998Z,15.50
2023-04-09T19:27:14.094Z,16.60
2023-04-09T19:29:41.862Z,16.70
2023-04-09T19:32:11.750Z,16.30
2023-04-09T19:34:39.495Z,19.90
2023-04-09T19:37:07.524Z,20.10
2023-04-09T19:39:35.631Z,19.40
2023-04-09T19:42:03.439Z,19.50
2023-04-09T19:44:31.254Z,22.20
2023-04-09T19:46:58.968Z,17.80
2023-04-09T19:49:27.327Z,17.50
2023-04-09T19:51:55.201Z,18.60
2023-04-09T19:54:22.967Z,18.20
2023-04-09T19:56:50.636Z,19.40
2023-04-09T19:59:18.373Z,16.40
2023-04-09T20:01:48.022Z,19.80
2023-04-09T20:04:15.932Z,19.70
2023-04-09T20:06:44.116Z,22.90
2023-04-09T20:09:14.450Z,35.90
2023-04-09T20:11:42.193Z,49.20
2023-04-09T20:14:12.220Z,47.40
2023-04-09T20:16:40.001Z,46.40
2023-04-09T20:19:07.816Z,28.70
2023-04-09T20:21:35.633Z,20.20
2023-04-09T20:24:03.978Z,20.60
2023-04-09T20:26:31.752Z,27.20
2023-04-09T20:28:59.592Z,22.50
2023-04-09T20:31:27.875Z,23.70
2023-04-09T20:33:55.745Z,22.30
2023-04-09T20:36:23.497Z,25.80
2023-04-09T20:38:51.520Z,25.40
2023-04-09T20:41:19.518Z,25.80
2023-04-09T20:43:47.329Z,32.40
2023-04-09T20:46:15.288Z,31.70
2023-04-09T20:48:43.215Z,30.80
2023-04-09T20:51:11.499Z,32.80
2023-04-09T20:53:39.259Z,38.40
2023-04-09T20:56:08.639Z,34.20
2023-04-09T20:58:36.844Z,24.80
2023-04-09T21:01:06.737Z,32.90
2023-04-09T21:03:36.095Z,27.50
2023-04-09T21:06:04.366Z,24.40
2023-04-09T21:08:32.421Z,21.50
2023-04-09T21:11:00.379Z,20.30
2023-04-09T21:13:28.444Z,24.00
2023-04-09T21:15:57.053Z,22.20
2023-04-09T21:18:24.878Z,23.00
2023-04-09T21:20:52.662Z,26.50
2023-04-09T21:23:20.507Z,26.70
2023-04-09T21:25:48.258Z,22.90
2023-04-09T21:28:15.965Z,20.90
2023-04-09T21:30:43.805Z,22.00
2023-04-09T21:33:11.532Z,26.10
2023-04-09T21:35:39.283Z,24.90
2023-04-09T21:38:07.365Z,22.60
2023-04-09T21:40:35.153Z,25.10
2023-04-09T21:43:02.820Z,23.60
2023-04-09T21:45:30.669Z,21.60
2023-04-09T21:47:58.534Z,22.10
2023-04-09T21:50:26.377Z,22.20
2023-04-09T21:52:54.052Z,22.10
2023-04-09T21:55:21.920Z,23.70
2023-04-09T21:57:49.715Z,25.20
2023-04-09T22:00:17.745Z,24.10
2023-04-09T22:02:46.096Z,22.10
2023-04-09T22:05:14.051Z,21.60
2023-04-09T22:07:42.472Z,24.20
2023-04-09T22:10:10.474Z,25.90
2023-04-09T22:12:38.206Z,20.70
2023-04-09T22:15:06.415Z,22.60
2023-04-09T22:17:34.345Z,21.60
2023-04-09T22:20:02.696Z,24.40
2023-04-09T22:22:30.505Z,23.20
2023-04-09T22:24:58.359Z,24.90
2023-04-09T22:27:26.330Z,24.40
2023-04-09T22:29:54.134Z,27.40
2023-04-09T22:32:21.960Z,24.30
2023-04-09T22:34:49.692Z,26.20
2023-04-09T22:37:17.593Z,23.10
2023-04-09T22:39:45.370Z,26.50
2023-04-09T22:42:13.513Z,26.00
2023-04-09T22:44:41.598Z,27.10
2023-04-09T22:47:09.426Z,26.10
2023-04-09T22:49:37.603Z,30.10
2023-04-09T22:52:05.770Z,22.70
2023-04-09T22:54:33.581Z,25.70
2023-04-09T22:57:01.938Z,22.50
2023-04-09T22:59:39.009Z,25.60
2023-04-09T23:02:07.948Z,24.70
2023-04-09T23:04:35.912Z,21.30
2023-04-09T23:07:03.770Z,18.90
2023-04-09T23:09:32.042Z,17.50
2023-04-09T23:11:59.779Z,16.60
2023-04-09T23:14:27.506Z,16.30
2023-04-09T23:16:55.314Z,15.60
2023-04-09T23:19:23.056Z,16.20
2023-04-09T23:21:50.733Z,18.80
2023-04-09T23:24:19.297Z,21.80
2023-04-09T23:26:47.132Z,20.20
2023-04-09T23:29:15.046Z,18.50
2023-04-09T23:31:42.993Z,22.20
2023-04-09T23:34:10.812Z,25.20
2023-04-09T23:36:38.719Z,25.90
2023-04-09T23:39:06.470Z,29.00
2023-04-09T23:41:34.223Z,30.20
2023-04-09T23:44:02.040Z,26.50
2023-04-09T23:46:29.847Z,23.40
2023-04-09T23:48:57.784Z,20.60
2023-04-09T23:51:26.151Z,25.00
2023-04-09T23:53:54.074Z,27.00
2023-04-09T23:56:23.116Z,30.50
2023-04-09T23:58:50.886Z,24.10
